createdAt,value
2022-08-12T00:01:03.863Z,29.64
2022-08-12T00:03:51.461Z,29.92
2022-08-12T00:06:39.831Z,29.83
2022-08-12T00:09:26.589Z,29.86
2022-08-12T00:12:12.890Z,29.79
2022-08-12T00:14:58.125Z,29.84
2022-08-12T00:17:43.548Z,29.60
2022-08-12T00:20:29.841Z,30.10
2022-08-12T00:23:15.777Z,29.84
2022-08-12T00:26:20.797Z,30.42
2022-08-12T00:29:13.435Z,30.15
2022-08-12T00:32:00.337Z,30.38
2022-08-12T00:34:46.585Z,30.04
2022-08-12T00:37:34.742Z,30.43
2022-08-12T00:40:22.135Z,30.54
2022-08-12T00:42:48.766Z,30.52
2022-08-12T00:45:15.381Z,30.91
2022-08-12T00:47:43.385Z,30.55
2022-08-12T00:50:18.122Z,30.61
2022-08-12T00:52:47.227Z,31.07
2022-08-12T00:55:15.358Z,30.74
2022-08-12T00:57:47.937Z,31.37
2022-08-12T01:00:25.217Z,31.19
2022-08-12T01:02:57.574Z,31.22
2022-08-12T01:05:44.770Z,30.90
2022-08-12T01:08:30.124Z,30.90
2022-08-12T01:11:16.172Z,31.16
2022-08-12T01:13:48.418Z,31.63
2022-08-12T01:16:22.989Z,31.70
2022-08-12T01:18:51.744Z,31.30
2022-08-12T01:21:27.408Z,31.83
2022-08-12T01:24:32.028Z,31.98
2022-08-12T01:27:01.221Z,31.41
2022-08-12T01:29:33.257Z,31.74
2022-08-12T01:32:08.972Z,31.75
2022-08-12T01:34:38.538Z,31.66
2022-08-12T01:37:08.349Z,31.69
2022-08-12T01:40:35.377Z,31.84
2022-08-12T01:42:39.337Z,31.82
2022-08-12T01:45:07.169Z,31.97
2022-08-12T01:47:50.566Z,32.01
2022-08-12T01:51:00.568Z,31.75
2022-08-12T01:53:50.279Z,32.36
2022-08-12T01:56:21.946Z,32.21
2022-08-12T01:59:12.199Z,32.24
2022-08-12T02:01:40.167Z,32.24
2022-08-12T02:04:40.525Z,32.73
2022-08-12T02:08:06.836Z,32.49
2022-08-12T02:11:24.356Z,32.53
2022-08-12T02:13:58.561Z,32.75
2022-08-12T02:16:56.579Z,32.22
2022-08-12T02:19:51.003Z,32.92
2022-08-12T02:22:29.922Z,33.51
2022-08-12T02:25:33.670Z,33.51
2022-08-12T02:28:00.873Z,32.73
2022-08-12T02:30:42.467Z,33.27
2022-08-12T02:33:10.235Z,33.16
2022-08-12T02:35:36.898Z,33.10
2022-08-12T02:38:09.744Z,33.67
2022-08-12T02:40:38.788Z,33.15
2022-08-12T02:43:12.173Z,33.52
2022-08-12T02:46:00.283Z,33.17
2022-08-12T02:48:35.546Z,33.64
2022-08-12T02:51:06.292Z,33.63
2022-08-12T02:53:36.708Z,33.71
2022-08-12T02:56:05.242Z,33.64
2022-08-12T02:58:33.103Z,32.82
2022-08-12T03:01:01.589Z,33.22
2022-08-12T03:03:33.210Z,33.96
2022-08-12T03:06:01.952Z,34.08
2022-08-12T03:08:33.021Z,34.05
2022-08-12T03:11:20.698Z,34.26
2022-08-12T03:13:57.905Z,34.22
2022-08-12T03:16:27.975Z,33.85
2022-08-12T03:18:54.881Z,33.94
2022-08-12T03:21:52.679Z,34.03
2022-08-12T03:24:10.450Z,34.06
2022-08-12T03:26:37.676Z,33.96
2022-08-12T03:29:06.771Z,34.21
2022-08-12T03:31:34.162Z,34.18
2022-08-12T03:34:12.686Z,34.47
2022-08-12T03:36:41.178Z,34.38
2022-08-12T03:39:17.515Z,34.46
2022-08-12T03:41:58.085Z,34.81
2022-08-12T03:44:57.485Z,34.80
2022-08-12T03:47:52.668Z,34.57
2022-08-12T03:50:38.616Z,34.44
2022-08-12T03:53:27.913Z,35.00
2022-08-12T03:56:13.820Z,34.70
2022-08-12T03:58:59.862Z,35.03
2022-08-12T04:01:26.976Z,34.83
2022-08-12T04:03:54.810Z,34.72
2022-08-12T04:06:34.706Z,35.39
2022-08-12T04:09:15.964Z,35.11
2022-08-12T04:12:02.308Z,34.78
2022-08-12T04:14:28.840Z,34.59
2022-08-12T04:16:57.231Z,34.94
2022-08-12T04:19:25.164Z,34.98
2022-08-12T04:22:02.180Z,34.97
2022-08-12T04:24:35.459Z,35.25
2022-08-12T04:27:05.451Z,35.12
2022-08-12T04:30:29.243Z,35.24
2022-08-12T04:32:18.936Z,35.19
2022-08-12T04:34:45.711Z,35.26
2022-08-12T04:37:12.866Z,35.72
2022-08-12T04:39:40.139Z,35.48
2022-08-12T04:42:06.852Z,35.49
2022-08-12T04:44:33.377Z,35.66
2022-08-12T04:47:00.216Z,35.66
2022-08-12T04:49:27.876Z,35.72
2022-08-12T04:51:58.969Z,35.92
2022-08-12T04:54:27.531Z,36.08
2022-08-12T04:57:03.462Z,36.16
2022-08-12T04:59:47.030Z,36.10
2022-08-12T05:02:21.569Z,36.30
2022-08-12T05:04:51.615Z,35.86
2022-08-12T05:07:18.542Z,35.90
2022-08-12T05:10:00.824Z,35.80
2022-08-12T05:12:34.821Z,36.57
2022-08-12T05:15:01.700Z,36.03
2022-08-12T05:17:28.580Z,35.72
2022-08-12T05:19:57.068Z,36.03
2022-08-12T05:22:26.156Z,35.98
2022-08-12T05:24:52.840Z,35.75
2022-08-12T05:27:19.473Z,35.96
2022-08-12T05:30:06.438Z,36.15
2022-08-12T05:32:36.062Z,35.95
2022-08-12T05:35:06.362Z,36.09
2022-08-12T05:37:34.886Z,36.09
2022-08-12T05:40:08.368Z,36.18
2022-08-12T05:42:37.408Z,36.21
2022-08-12T05:45:04.294Z,36.07
2022-08-12T05:47:42.828Z,35.94
2022-08-12T05:50:17.563Z,35.77
2022-08-12T05:52:44.082Z,36.06
2022-08-12T05:55:11.684Z,35.83
2022-08-12T05:57:39.111Z,35.78
2022-08-12T06:00:06.601Z,35.90
2022-08-12T06:02:35.038Z,35.91
2022-08-12T06:05:02.505Z,34.98
2022-08-12T06:07:42.781Z,35.20
2022-08-12T06:10:32.142Z,35.19
2022-08-12T06:13:04.462Z,35.52
2022-08-12T06:15:35.743Z,34.92
2022-08-12T06:18:13.792Z,35.17
2022-08-12T06:20:43.490Z,35.10
2022-08-12T06:23:11.723Z,35.12
2022-08-12T06:25:38.518Z,34.75
2022-08-12T06:28:15.750Z,34.64
2022-08-12T06:30:42.350Z,34.67
2022-08-12T06:33:22.254Z,34.53
2022-08-12T06:35:51.214Z,34.55
2022-08-12T06:38:18.529Z,34.66
2022-08-12T06:41:04.915Z,34.42
2022-08-12T06:44:05.582Z,34.30
2022-08-12T06:46:19.590Z,34.18
2022-08-12T06:48:46.086Z,34.05
2022-08-12T06:51:12.824Z,34.04
2022-08-12T06:53:41.256Z,34.27
2022-08-12T06:56:12.326Z,33.39
2022-08-12T06:58:39.703Z,33.82
2022-08-12T07:01:07.152Z,33.27
2022-08-12T07:03:33.773Z,32.98
2022-08-12T07:06:06.529Z,33.00
2022-08-12T07:08:35.026Z,32.81
2022-08-12T07:11:03.210Z,32.56
2022-08-12T07:14:12.789Z,32.26
2022-08-12T07:16:57.565Z,32.25
2022-08-12T07:19:25.135Z,31.64
2022-08-12T07:22:07.708Z,31.45
2022-08-12T07:24:34.202Z,31.13
2022-08-12T07:27:00.891Z,30.68
2022-08-12T07:30:00.051Z,30.78
2022-08-12T07:32:15.130Z,31.61
2022-08-12T07:34:43.249Z,31.41
2022-08-12T07:37:09.784Z,31.43
2022-08-12T07:39:36.314Z,30.82
2022-08-12T07:42:17.038Z,30.59
2022-08-12T07:44:44.028Z,29.24
2022-08-12T07:47:10.614Z,28.76
2022-08-12T07:50:06.222Z,27.87
2022-08-12T07:52:25.776Z,27.39
2022-08-12T07:54:52.262Z,26.60
2022-08-12T07:57:18.784Z,26.01
2022-08-12T07:59:45.679Z,25.41
2022-08-12T08:02:16.215Z,24.96
2022-08-12T08:04:58.048Z,24.68
2022-08-12T08:07:30.840Z,23.82
2022-08-12T08:10:01.237Z,23.38
2022-08-12T08:12:47.626Z,22.71
2022-08-12T08:15:15.720Z,22.16
2022-08-12T08:17:56.540Z,21.25
2022-08-12T08:20:28.348Z,20.93
2022-08-12T08:22:56.734Z,20.67
2022-08-12T08:25:36.043Z,20.66
2022-08-12T08:28:08.892Z,20.23
2022-08-12T08:30:38.293Z,20.24
2022-08-12T08:33:23.081Z,19.12
2022-08-12T08:35:54.427Z,19.25
2022-08-12T08:38:33.186Z,19.37
2022-08-12T08:42:17.010Z,18.71
2022-08-12T08:44:11.507Z,18.88
2022-08-12T08:46:39.617Z,18.79
2022-08-12T08:49:06.170Z,20.65
2022-08-12T08:51:32.902Z,18.33
2022-08-12T08:53:59.448Z,18.32
2022-08-12T08:56:27.184Z,17.95
2022-08-12T08:58:53.719Z,17.50
2022-08-12T09:01:22.467Z,17.73
2022-08-12T09:05:10.124Z,17.86
2022-08-12T09:06:38.015Z,18.30
2022-08-12T09:12:13.862Z,17.83
2022-08-12T09:14:46.946Z,17.88
2022-08-12T09:17:21.230Z,17.33
2022-08-12T09:19:55.131Z,17.55
2022-08-12T09:22:28.537Z,17.48
2022-08-12T09:24:55.336Z,17.19
2022-08-12T09:27:27.160Z,17.38
2022-08-12T09:30:15.765Z,17.81
2022-08-12T09:33:04.014Z,17.24
2022-08-12T09:35:42.876Z,17.33
2022-08-12T09:38:28.393Z,17.62
2022-08-12T09:42:07.594Z,17.08
2022-08-12T09:44:06.342Z,17.20
2022-08-12T09:46:53.174Z,16.92
2022-08-12T09:49:24.043Z,16.83
2022-08-12T09:51:51.643Z,17.25
2022-08-12T09:54:34.362Z,17.40
2022-08-12T09:58:45.077Z,17.09
2022-08-12T10:00:14.855Z,17.30
2022-08-12T10:03:09.109Z,17.94
2022-08-12T10:06:20.312Z,18.22
2022-08-12T10:08:44.441Z,17.23
2022-08-12T10:12:07.760Z,17.13
2022-08-12T10:14:21.580Z,17.15
2022-08-12T10:17:01.490Z,17.61
2022-08-12T10:19:36.271Z,17.28
2022-08-12T10:22:06.111Z,17.22
2022-08-12T10:24:53.300Z,17.22
2022-08-12T10:27:39.559Z,17.43
2022-08-12T10:30:41.990Z,17.13
2022-08-12T10:33:19.220Z,17.30
2022-08-12T10:35:58.266Z,17.00
2022-08-12T10:38:33.282Z,17.39
2022-08-12T10:41:57.297Z,16.67
2022-08-12T10:44:17.458Z,17.02
2022-08-12T10:46:49.096Z,16.63
2022-08-12T10:50:03.351Z,16.83
2022-08-12T10:52:33.356Z,17.77
2022-08-12T10:54:51.744Z,17.03
2022-08-12T10:58:13.349Z,16.23
2022-08-12T11:00:30.566Z,16.47
2022-08-12T11:04:25.901Z,17.85
2022-08-12T11:07:07.640Z,16.42
2022-08-12T11:08:36.997Z,16.53
2022-08-12T11:11:13.736Z,15.66
2022-08-12T11:13:48.729Z,16.56
2022-08-12T11:16:21.787Z,15.92
2022-08-12T11:18:55.057Z,16.22
2022-08-12T11:21:56.127Z,15.77
2022-08-12T11:24:30.057Z,16.23
2022-08-12T11:26:59.228Z,15.43
2022-08-12T11:29:27.506Z,15.28
2022-08-12T11:32:14.011Z,15.05
2022-08-12T11:34:53.506Z,15.41
2022-08-12T11:37:25.577Z,15.40
2022-08-12T11:42:37.279Z,15.49
2022-08-12T11:45:06.726Z,14.83
2022-08-12T11:47:40.137Z,14.59
2022-08-12T11:50:07.890Z,14.59
2022-08-12T11:52:55.794Z,14.70
2022-08-12T11:55:24.218Z,14.74
2022-08-12T11:58:14.251Z,14.57
2022-08-12T12:03:40.245Z,14.98
2022-08-12T12:06:15.439Z,14.65
2022-08-12T12:08:50.473Z,15.16
2022-08-12T12:11:18.552Z,14.89
2022-08-12T12:14:07.902Z,14.51
2022-08-12T12:16:33.299Z,14.54
2022-08-12T12:19:00.306Z,14.58
2022-08-12T12:21:48.750Z,14.66
2022-08-12T12:24:13.304Z,14.67
2022-08-12T12:26:39.839Z,14.77
2022-08-12T12:30:13.695Z,14.87
2022-08-12T12:32:11.041Z,14.53
2022-08-12T12:34:38.880Z,15.21
2022-08-12T12:37:58.968Z,14.85
2022-08-12T12:40:14.021Z,14.31
2022-08-12T12:42:44.288Z,14.97
2022-08-12T12:45:25.928Z,14.50
2022-08-12T12:47:55.049Z,14.96
2022-08-12T12:50:34.709Z,14.54
2022-08-12T12:53:01.800Z,14.97
2022-08-12T12:55:35.540Z,14.84
2022-08-12T12:58:04.850Z,14.83
2022-08-12T13:00:36.415Z,14.54
2022-08-12T13:03:02.986Z,14.46
2022-08-12T13:05:42.294Z,14.84
2022-08-12T13:08:38.630Z,14.84
2022-08-12T13:11:06.742Z,14.32
2022-08-12T13:14:07.173Z,14.40
2022-08-12T13:16:26.627Z,14.89
2022-08-12T13:18:54.027Z,14.62
2022-08-12T13:21:33.101Z,14.70
2022-08-12T13:24:09.885Z,14.89
2022-08-12T13:26:39.990Z,14.91
2022-08-12T13:29:11.291Z,14.99
2022-08-12T13:32:17.629Z,14.87
2022-08-12T13:34:33.905Z,14.94
2022-08-12T13:37:09.068Z,14.89
2022-08-12T13:39:36.798Z,15.06
2022-08-12T13:42:06.358Z,14.78
2022-08-12T13:44:40.870Z,15.36
2022-08-12T13:47:19.695Z,15.28
2022-08-12T13:49:55.334Z,15.03
2022-08-12T13:52:23.533Z,15.33
2022-08-12T13:54:56.267Z,15.14
2022-08-12T13:57:26.369Z,15.28
2022-08-12T13:59:55.527Z,14.75
2022-08-12T14:02:22.566Z,14.70
2022-08-12T14:04:55.929Z,15.10
2022-08-12T14:07:25.975Z,14.63
2022-08-12T14:10:16.385Z,14.70
2022-08-12T14:12:54.826Z,14.43
2022-08-12T14:15:36.702Z,14.65
2022-08-12T14:18:10.615Z,14.68
2022-08-12T14:20:40.799Z,14.48
2022-08-12T14:24:01.180Z,14.63
2022-08-12T14:25:58.895Z,14.26
2022-08-12T14:28:26.815Z,14.02
2022-08-12T14:31:01.238Z,14.33
2022-08-12T14:33:44.323Z,14.07
2022-08-12T14:36:12.761Z,14.39
2022-08-12T14:38:42.080Z,13.89
2022-08-12T14:41:14.628Z,14.08
2022-08-12T14:43:44.239Z,14.54
2022-08-12T14:46:27.227Z,14.33
2022-08-12T14:48:54.868Z,14.46
2022-08-12T14:52:43.471Z,13.92
2022-08-12T14:56:59.368Z,14.21
2022-08-12T14:57:19.056Z,13.81
2022-08-12T15:00:01.744Z,13.82
2022-08-12T15:02:29.575Z,14.20
2022-08-12T15:04:59.031Z,13.94
2022-08-12T15:07:33.406Z,14.16
2022-08-12T15:10:13.761Z,14.42
2022-08-12T15:12:40.800Z,14.10
2022-08-12T15:15:09.099Z,14.42
2022-08-12T15:17:38.588Z,14.30
2022-08-12T15:20:31.285Z,14.30
2022-08-12T15:22:54.124Z,14.31
2022-08-12T15:25:21.255Z,14.45
2022-08-12T15:28:11.025Z,14.35
2022-08-12T15:30:40.410Z,14.43
2022-08-12T15:33:12.730Z,13.96
2022-08-12T15:35:50.184Z,14.49
2022-08-12T15:38:20.495Z,14.71
2022-08-12T15:40:50.454Z,14.37
2022-08-12T15:43:27.452Z,14.16
2022-08-12T15:46:06.288Z,14.61
2022-08-12T15:48:34.138Z,14.62
2022-08-12T15:51:02.872Z,14.54
2022-08-12T15:53:53.282Z,14.16
2022-08-12T15:56:29.077Z,14.50
2022-08-12T15:58:58.773Z,14.65
2022-08-12T16:01:34.054Z,14.55
2022-08-12T16:04:02.460Z,14.87
2022-08-12T16:07:03.689Z,14.41
2022-08-12T16:09:21.569Z,14.29
2022-08-12T16:11:48.412Z,14.82
2022-08-12T16:14:16.215Z,14.53
2022-08-12T16:16:43.049Z,14.67
2022-08-12T16:20:01.783Z,14.58
2022-08-12T16:21:58.302Z,14.42
2022-08-12T16:24:25.542Z,14.67
2022-08-12T16:26:54.370Z,14.42
2022-08-12T16:29:38.650Z,14.65
2022-08-12T16:32:21.107Z,14.51
2022-08-12T16:34:54.757Z,14.88
2022-08-12T16:38:04.867Z,14.80
2022-08-12T16:40:11.344Z,14.33
2022-08-12T16:42:39.372Z,14.94
2022-08-12T16:45:13.657Z,14.76
2022-08-12T16:47:58.733Z,14.98
2022-08-12T16:50:31.274Z,14.76
2022-08-12T16:52:59.891Z,14.97
2022-08-12T16:55:41.853Z,15.05
2022-08-12T16:58:27.927Z,15.14
2022-08-12T17:00:55.922Z,15.04
2022-08-12T17:03:28.808Z,15.39
2022-08-12T17:05:57.025Z,15.22
2022-08-12T17:08:28.942Z,15.17
2022-08-12T17:10:56.335Z,15.06
2022-08-12T17:13:26.136Z,15.39
2022-08-12T17:16:04.891Z,15.26
2022-08-12T17:18:42.380Z,15.64
2022-08-12T17:21:11.894Z,15.72
2022-08-12T17:23:48.568Z,15.60
2022-08-12T17:26:22.427Z,15.32
2022-08-12T17:28:56.515Z,15.32
2022-08-12T17:31:59.756Z,15.82
2022-08-12T17:34:29.614Z,15.23
2022-08-12T17:36:58.753Z,15.09
2022-08-12T17:40:12.800Z,15.25
2022-08-12T17:42:34.730Z,15.35
2022-08-12T17:45:17.058Z,15.15
2022-08-12T17:48:04.531Z,15.39
2022-08-12T17:50:34.700Z,15.84
2022-08-12T17:53:02.772Z,15.88
2022-08-12T17:55:43.269Z,15.32
2022-08-12T17:58:14.333Z,15.86
2022-08-12T18:00:45.128Z,15.72
2022-08-12T18:04:04.843Z,15.65
2022-08-12T18:06:08.490Z,15.53
2022-08-12T18:08:35.668Z,15.34
2022-08-12T18:11:21.208Z,15.46
2022-08-12T18:14:07.270Z,15.32
2022-08-12T18:16:35.005Z,16.03
2022-08-12T18:19:02.418Z,15.48
2022-08-12T18:22:00.950Z,15.77
2022-08-12T18:24:21.707Z,15.84
2022-08-12T18:26:56.478Z,15.68
2022-08-12T18:29:27.177Z,15.61
2022-08-12T18:32:35.030Z,15.99
2022-08-12T18:34:58.323Z,15.87
2022-08-12T18:37:41.964Z,16.01
2022-08-12T18:40:28.747Z,15.99
2022-08-12T18:42:59.255Z,16.38
2022-08-12T18:45:31.385Z,16.23
2022-08-12T18:48:14.914Z,15.97
2022-08-12T18:50:49.054Z,16.27
2022-08-12T18:54:07.130Z,16.37
2022-08-12T18:56:04.914Z,16.50
2022-08-12T18:58:59.504Z,16.54
2022-08-12T19:02:19.893Z,16.91
2022-08-12T19:04:15.644Z,16.63
2022-08-12T19:06:45.778Z,16.77
2022-08-12T19:09:14.996Z,17.09
2022-08-12T19:12:00.751Z,17.02
2022-08-12T19:14:28.215Z,16.92
2022-08-12T19:17:01.165Z,17.28
2022-08-12T19:19:27.781Z,17.78
2022-08-12T19:22:05.511Z,17.46
2022-08-12T19:24:50.960Z,17.74
2022-08-12T19:27:18.571Z,17.88
2022-08-12T19:29:45.118Z,18.26
2022-08-12T19:32:31.795Z,18.03
2022-08-12T19:38:06.388Z,18.31
2022-08-12T19:40:37.287Z,18.84
2022-08-12T19:43:20.094Z,19.07
2022-08-12T19:45:56.765Z,19.26
2022-08-12T19:48:27.437Z,18.77
2022-08-12T19:50:55.563Z,19.37
2022-08-12T19:53:23.882Z,19.45
2022-08-12T19:55:55.482Z,19.67
2022-08-12T19:58:23.550Z,19.53
2022-08-12T20:00:53.287Z,18.96
2022-08-12T20:03:40.399Z,19.27
2022-08-12T20:06:23.807Z,19.21
2022-08-12T20:08:56.759Z,19.79
2022-08-12T20:12:13.269Z,19.63
2022-08-12T20:14:18.943Z,19.85
2022-08-12T20:16:53.038Z,19.81
2022-08-12T20:20:01.701Z,19.42
2022-08-12T20:22:24.270Z,20.02
2022-08-12T20:24:58.099Z,19.97
2022-08-12T20:28:02.824Z,19.62
2022-08-12T20:30:16.517Z,19.69
2022-08-12T20:33:17.758Z,19.79
2022-08-12T20:36:13.862Z,19.85
2022-08-12T20:38:39.441Z,20.03
2022-08-12T20:41:16.218Z,20.28
2022-08-12T20:43:44.390Z,20.75
2022-08-12T20:46:13.411Z,20.66
2022-08-12T20:48:43.464Z,20.85
2022-08-12T20:51:19.195Z,20.83
2022-08-12T20:53:57.765Z,20.99
2022-08-12T20:56:34.913Z,21.09
2022-08-12T20:59:06.821Z,20.92
2022-08-12T21:01:46.231Z,20.98
2022-08-12T21:04:34.104Z,21.36
2022-08-12T21:07:04.704Z,21.45
2022-08-12T21:09:41.022Z,21.62
2022-08-12T21:12:37.508Z,21.91
2022-08-12T21:15:23.235Z,21.56
2022-08-12T21:18:09.350Z,21.84
2022-08-12T21:20:34.473Z,21.65
2022-08-12T21:23:04.270Z,21.88
2022-08-12T21:25:44.687Z,22.32
2022-08-12T21:28:14.369Z,22.50
2022-08-12T21:31:10.395Z,22.23
2022-08-12T21:33:31.492Z,22.52
2022-08-12T21:36:00.920Z,22.62
2022-08-12T21:38:35.137Z,22.69
2022-08-12T21:41:07.082Z,22.16
2022-08-12T21:43:43.633Z,22.60
2022-08-12T21:46:34.716Z,22.42
2022-08-12T21:49:04.985Z,22.70
2022-08-12T21:51:49.296Z,22.75
2022-08-12T21:54:22.600Z,22.65
2022-08-12T21:56:52.210Z,22.94
2022-08-12T21:59:21.739Z,22.53
2022-08-12T22:01:49.629Z,23.15
2022-08-12T22:04:36.535Z,23.01
2022-08-12T22:07:04.405Z,22.80
2022-08-12T22:09:42.775Z,22.64
2022-08-12T22:12:29.051Z,22.95
2022-08-12T22:14:55.563Z,23.02
2022-08-12T22:17:49.510Z,23.31
2022-08-12T22:20:17.367Z,23.14
2022-08-12T22:22:53.621Z,23.36
2022-08-12T22:25:24.234Z,23.32
2022-08-12T22:28:12.368Z,23.31
2022-08-12T22:30:57.184Z,23.19
2022-08-12T22:33:23.733Z,23.01
2022-08-12T22:35:59.824Z,23.36
2022-08-12T22:38:29.094Z,23.34
2022-08-12T22:41:34.603Z,23.49
2022-08-12T22:44:20.962Z,23.31
2022-08-12T22:47:07.239Z,23.59
2022-08-12T22:49:49.007Z,23.65
2022-08-12T22:52:22.947Z,23.33
2022-08-12T22:55:03.821Z,23.82
2022-08-12T22:57:54.072Z,23.85
2022-08-12T23:00:24.221Z,23.80
2022-08-12T23:02:56.716Z,23.64
2022-08-12T23:05:57.130Z,24.22
2022-08-12T23:08:17.674Z,23.85
2022-08-12T23:10:46.434Z,24.00
2022-08-12T23:13:43.185Z,24.08
2022-08-12T23:16:28.361Z,24.04
2022-08-12T23:19:10.742Z,24.71
2022-08-12T23:22:05.167Z,24.73
2022-08-12T23:24:53.759Z,24.79
2022-08-12T23:27:50.811Z,24.69
2022-08-12T23:30:24.689Z,25.00
2022-08-12T23:32:59.652Z,24.83
2022-08-12T23:35:45.336Z,24.90
2022-08-12T23:38:30.733Z,25.26
2022-08-12T23:40:59.941Z,25.33
2022-08-12T23:43:39.974Z,25.32
2022-08-12T23:46:18.412Z,25.42
2022-08-12T23:48:48.068Z,24.99
2022-08-12T23:51:23.753Z,25.56
2022-08-12T23:54:07.143Z,25.54
2022-08-12T23:56:35.785Z,25.62
2022-08-12T23:59:08.246Z,25.77
